Time;durP1;ratioP1;P1;durP2;ratioP2;P2;SDS_P1;SDS_P2;PMS_P1;PMS_P2;Temp;Humidity;BMP_temperature;BMP_pressure;BME280_temperature;BME280_humidity;BME280_pressure;Samples;Min_cycle;Max_cycle;Signal;HPM_P1;HPM_P2
2023/01/19 00:02:23;;;;;;;17.17;11.77;;;1.80;99.90;;;;;;4953766;28;20204;-46
2023/01/19 00:04:49;;;;;;;19.30;11.60;;;1.60;99.90;;;;;;4953792;28;20298;-46
2023/01/19 00:07:17;;;;;;;21.13;12.27;;;1.50;99.90;;;;;;5019996;28;20218;-47
2023/01/19 00:09:44;;;;;;;18.50;11.75;;;1.50;99.90;;;;;;4953566;29;20204;-47
2023/01/19 00:12:11;;;;;;;14.95;12.10;;;1.50;99.90;;;;;;5020013;28;20209;-46
2023/01/19 00:14:38;;;;;;;16.75;11.50;;;1.40;99.90;;;;;;5019819;28;20696;-47
2023/01/19 00:17:05;;;;;;;18.08;10.80;;;0.90;99.90;;;;;;5019723;28;20698;-46
2023/01/19 00:19:31;;;;;;;25.30;11.90;;;1.70;99.90;;;;;;4953309;28;20207;-46
2023/01/19 00:21:58;;;;;;;22.75;11.52;;;1.60;99.90;;;;;;4953500;28;20579;-46
2023/01/19 00:24:26;;;;;;;17.10;11.75;;;1.20;99.90;;;;;;4953302;28;20215;-47
2023/01/19 00:26:52;;;;;;;16.20;11.20;;;1.70;99.90;;;;;;4953243;28;20669;-46
2023/01/19 00:29:20;;;;;;;14.27;10.75;;;1.40;99.90;;;;;;4952957;28;20196;-46
2023/01/19 00:31:47;;;;;;;15.93;10.95;;;1.50;99.90;;;;;;5019390;28;20235;-45
2023/01/19 00:34:13;;;;;;;16.65;9.82;;;1.20;99.90;;;;;;4953264;28;20195;-46
2023/01/19 00:36:40;;;;;;;18.63;10.27;;;1.20;99.90;;;;;;4953261;28;20206;-45
2023/01/19 00:39:07;;;;;;;16.85;9.45;;;1.20;99.90;;;;;;4952682;28;20230;-47
2023/01/19 00:44:18;;;;;;;12.38;9.85;;;1.50;99.90;;;;;;4952855;28;20309;-47
2023/01/19 00:46:45;;;;;;;21.27;9.95;;;1.40;99.90;;;;;;4953146;28;20672;-46
2023/01/19 00:49:12;;;;;;;15.00;9.80;;;1.40;99.90;;;;;;4952570;28;20219;-46
2023/01/19 00:51:38;;;;;;;13.20;10.15;;;1.40;99.90;;;;;;4952863;28;20672;-45
2023/01/19 00:54:09;;;;;;;15.30;10.30;;;1.60;99.90;;;;;;4952618;29;20667;-46
2023/01/19 00:56:37;;;;;;;16.33;10.38;;;1.50;99.90;;;;;;5018648;28;20191;-46
2023/01/19 00:59:04;;;;;;;12.63;10.07;;;1.40;99.90;;;;;;5019060;28;20204;-45
2023/01/19 01:01:31;;;;;;;16.45;11.02;;;1.50;99.90;;;;;;5018834;28;20208;-46
2023/01/19 01:03:57;;;;;;;17.50;10.65;;;1.60;99.90;;;;;;4952785;28;20703;-46
2023/01/19 01:06:24;;;;;;;16.55;11.25;;;1.30;99.90;;;;;;4952451;28;20227;-46
2023/01/19 01:08:51;;;;;;;20.23;10.25;;;1.30;99.90;;;;;;4952302;29;20282;-46
2023/01/19 01:11:17;;;;;;;14.35;9.63;;;1.30;99.90;;;;;;4952746;28;20210;-47
2023/01/19 01:13:45;;;;;;;17.00;11.43;;;1.30;99.90;;;;;;4952816;28;20211;-46
2023/01/19 01:16:14;;;;;;;17.25;10.20;;;1.20;99.90;;;;;;4952463;28;20222;-46
2023/01/19 01:18:41;;;;;;;16.52;11.07;;;1.40;99.90;;;;;;4952074;29;20211;-46
2023/01/19 01:21:08;;;;;;;14.65;11.23;;;1.20;99.90;;;;;;5018601;28;20687;-47
2023/01/19 01:23:35;;;;;;;17.67;11.65;;;1.10;99.90;;;;;;4952186;28;20204;-46
2023/01/19 01:26:01;;;;;;;15.45;10.18;;;1.20;99.90;;;;;;5018386;28;20239;-46
2023/01/19 01:28:28;;;;;;;17.38;11.45;;;1.50;99.90;;;;;;4952007;28;20200;-45
2023/01/19 01:30:56;;;;;;;18.55;11.55;;;1.10;99.90;;;;;;4952253;28;20211;-45
2023/01/19 01:33:23;;;;;;;16.50;11.38;;;0.60;99.90;;;;;;4952112;29;20256;-46
2023/01/19 01:35:50;;;;;;;17.95;11.00;;;1.20;99.90;;;;;;4952750;28;20226;-46
2023/01/19 01:38:17;;;;;;;31.25;15.40;;;1.20;99.90;;;;;;4951940;28;20226;-46
2023/01/19 01:40:44;;;;;;;16.73;12.25;;;1.00;99.90;;;;;;5018470;28;20690;-47
2023/01/19 01:43:12;;;;;;;16.10;12.10;;;1.20;99.90;;;;;;5018273;28;20199;-45
2023/01/19 01:45:39;;;;;;;15.88;11.07;;;1.40;99.90;;;;;;4952017;28;20305;-45
2023/01/19 01:48:12;;;;;;;20.13;12.05;;;1.50;99.90;;;;;;4951957;28;20615;-46
2023/01/19 01:51:22;;;;;;;17.95;11.63;;;1.60;99.90;;;;;;4952177;28;20207;-46
2023/01/19 01:53:34;;;;;;;16.10;10.88;;;1.10;99.90;;;;;;4952091;28;20296;-45
2023/01/19 01:56:05;;;;;;;15.02;11.30;;;1.00;99.90;;;;;;4951980;28;20258;-45
2023/01/19 01:58:33;;;;;;;18.10;11.40;;;0.90;99.90;;;;;;5017913;28;20301;-46
2023/01/19 02:03:45;;;;;;;24.65;12.32;;;1.00;99.90;;;;;;4951743;29;20670;-46
2023/01/19 02:06:13;;;;;;;15.95;11.05;;;1.00;99.90;;;;;;4951686;28;20238;-45
2023/01/19 02:14:15;;;;;;;24.70;12.13;;;0.80;99.90;;;;;;4951569;28;20276;-45
2023/01/19 02:16:42;;;;;;;17.30;13.15;;;1.10;99.90;;;;;;4951765;28;20209;-45
2023/01/19 02:19:15;;;;;;;15.73;11.25;;;0.80;99.90;;;;;;4951322;28;20282;-45
2023/01/19 02:21:52;;;;;;;19.90;12.50;;;1.00;99.90;;;;;;4951587;29;20200;-46
2023/01/19 02:24:21;;;;;;;15.10;11.48;;;1.00;99.90;;;;;;4951469;28;20200;-45
2023/01/19 02:26:48;;;;;;;16.33;12.13;;;1.00;99.90;;;;;;4951669;28;20666;-45
2023/01/19 02:29:17;;;;;;;18.15;12.30;;;1.00;99.90;;;;;;5017079;28;20214;-46
2023/01/19 02:31:45;;;;;;;19.90;12.80;;;1.00;99.90;;;;;;4951325;28;20210;-45
2023/01/19 02:34:15;;;;;;;18.15;12.95;;;1.50;99.90;;;;;;4951447;28;20323;-45
2023/01/19 02:36:48;;;;;;;18.05;12.38;;;0.80;99.90;;;;;;4951387;29;20288;-46
2023/01/19 02:39:18;;;;;;;16.92;11.82;;;0.70;99.90;;;;;;4950980;29;20204;-47
2023/01/19 02:41:51;;;;;;;25.52;12.23;;;0.70;99.90;;;;;;4951314;28;20289;-45
2023/01/19 02:44:19;;;;;;;17.88;12.38;;;0.80;99.90;;;;;;4951071;28;20680;-46
2023/01/19 02:46:46;;;;;;;17.65;13.10;;;0.80;99.90;;;;;;4951386;28;20723;-45
2023/01/19 02:49:13;;;;;;;22.83;13.45;;;1.10;99.90;;;;;;4950785;29;20212;-45
2023/01/19 02:51:43;;;;;;;24.25;12.82;;;0.30;99.90;;;;;;4951152;28;20235;-47
2023/01/19 02:54:35;;;;;;;18.40;12.85;;;0.60;99.90;;;;;;4951110;28;20214;-47
2023/01/19 02:57:18;;;;;;;25.23;12.45;;;0.70;99.90;;;;;;4951344;28;20209;-45
2023/01/19 02:59:55;;;;;;;15.73;12.43;;;0.70;99.90;;;;;;4950622;29;20203;-45
2023/01/19 03:02:32;;;;;;;23.60;13.40;;;0.70;99.90;;;;;;4951066;28;20232;-46
2023/01/19 03:05:08;;;;;;;19.50;13.27;;;0.60;99.90;;;;;;4950911;28;20237;-45
2023/01/19 03:07:51;;;;;;;20.65;13.85;;;1.00;99.90;;;;;;4951236;28;20206;-45
2023/01/19 03:10:22;;;;;;;23.30;14.88;;;0.50;99.90;;;;;;4950676;28;20207;-43
2023/01/19 03:12:55;;;;;;;20.70;14.40;;;0.60;99.90;;;;;;4950974;29;20284;-45
2023/01/19 03:15:27;;;;;;;22.33;14.20;;;0.60;99.90;;;;;;4950781;28;20218;-45
2023/01/19 03:17:53;;;;;;;27.67;14.50;;;0.40;99.90;;;;;;4951338;28;20230;-45
2023/01/19 03:20:24;;;;;;;25.50;14.80;;;0.60;99.90;;;;;;4953092;29;20207;-46
2023/01/19 03:22:55;;;;;;;20.13;12.98;;;0.60;99.90;;;;;;4954322;28;20204;-45
2023/01/19 03:25:23;;;;;;;19.20;13.95;;;0.50;99.90;;;;;;4954221;28;20229;-45
2023/01/19 03:27:53;;;;;;;26.27;14.98;;;0.30;99.90;;;;;;4954096;29;20205;-45
2023/01/19 03:30:25;;;;;;;23.77;15.73;;;0.30;99.90;;;;;;4954020;28;20206;-45
2023/01/19 03:32:56;;;;;;;24.60;14.88;;;0.30;99.90;;;;;;4954009;29;20581;-45
2023/01/19 03:35:26;;;;;;;25.08;15.95;;;0.30;99.90;;;;;;4954184;28;20225;-46
2023/01/19 03:37:56;;;;;;;24.40;14.65;;;0.30;99.90;;;;;;4954108;28;20213;-45
2023/01/19 03:40:26;;;;;;;23.00;15.20;;;-0.10;99.90;;;;;;4953688;28;20206;-46
2023/01/19 03:42:55;;;;;;;17.30;13.93;;;0.40;99.90;;;;;;4953799;29;20207;-44
2023/01/19 03:45:22;;;;;;;20.67;14.68;;;-0.20;99.90;;;;;;4953690;28;20699;-46
2023/01/19 03:47:49;;;;;;;18.30;14.23;;;0.30;99.90;;;;;;4953720;29;20610;-48
2023/01/19 03:50:25;;;;;;;24.38;16.17;;;0.10;99.90;;;;;;5020126;28;20207;-45
2023/01/19 03:53:02;;;;;;;16.70;13.48;;;0.00;99.90;;;;;;4953756;28;20209;-46
2023/01/19 03:55:29;;;;;;;23.77;15.73;;;0.50;99.90;;;;;;4953725;28;20217;-46
2023/01/19 03:57:57;;;;;;;19.70;15.18;;;0.20;99.90;;;;;;4953690;28;20206;-46
2023/01/19 04:00:24;;;;;;;19.67;13.80;;;0.40;99.90;;;;;;5020335;28;20213;-45
2023/01/19 04:02:51;;;;;;;21.17;15.85;;;0.80;99.90;;;;;;4953611;28;20206;-46
2023/01/19 04:05:18;;;;;;;21.83;13.27;;;0.30;99.90;;;;;;4953410;28;20575;-46
2023/01/19 04:07:44;;;;;;;22.88;14.55;;;0.20;99.90;;;;;;4953518;28;20241;-45
2023/01/19 04:10:11;;;;;;;20.00;15.07;;;0.20;99.90;;;;;;4953243;29;20205;-45
2023/01/19 04:12:38;;;;;;;23.98;14.18;;;0.30;99.90;;;;;;4953794;28;20287;-47
2023/01/19 04:15:07;;;;;;;23.67;16.35;;;0.30;99.90;;;;;;4953557;28;20643;-46
2023/01/19 04:17:34;;;;;;;22.55;15.50;;;0.30;99.90;;;;;;4953422;29;20202;-45
2023/01/19 04:20:00;;;;;;;21.65;15.00;;;0.10;99.90;;;;;;4953249;28;20213;-45
2023/01/19 04:22:27;;;;;;;23.38;14.07;;;0.00;99.90;;;;;;4953544;29;20202;-45
2023/01/19 04:24:54;;;;;;;25.25;16.50;;;0.30;99.90;;;;;;4953257;28;20226;-46
2023/01/19 04:27:21;;;;;;;21.25;13.95;;;0.80;99.90;;;;;;4953262;28;20205;-45
2023/01/19 04:29:47;;;;;;;20.90;14.50;;;0.10;99.90;;;;;;4952951;28;20210;-45
2023/01/19 04:32:15;;;;;;;22.95;15.80;;;0.20;99.90;;;;;;4952469;28;20214;-45
2023/01/19 04:34:42;;;;;;;19.08;14.63;;;0.10;99.90;;;;;;4953067;28;20708;-45
2023/01/19 04:37:09;;;;;;;25.02;14.68;;;0.30;99.90;;;;;;4953456;28;20260;-45
2023/01/19 04:39:36;;;;;;;22.15;14.50;;;0.70;99.90;;;;;;4952762;29;20208;-44
2023/01/19 04:42:03;;;;;;;21.70;15.00;;;0.30;99.90;;;;;;4953038;29;20278;-45
2023/01/19 04:44:29;;;;;;;19.40;13.55;;;0.30;99.90;;;;;;4953107;28;20226;-43
2023/01/19 04:46:56;;;;;;;22.85;16.00;;;-0.40;99.90;;;;;;4953900;29;20324;-44
2023/01/19 04:49:24;;;;;;;24.33;14.82;;;0.20;99.90;;;;;;4952718;28;20200;-45
2023/01/19 04:51:53;;;;;;;22.10;15.98;;;0.30;99.90;;;;;;4953227;28;20205;-47
2023/01/19 04:54:19;;;;;;;19.48;14.95;;;0.10;99.90;;;;;;4953015;28;20233;-44
2023/01/19 04:56:46;;;;;;;22.83;15.77;;;-0.40;99.90;;;;;;4953194;29;20201;-45
2023/01/19 04:59:13;;;;;;;19.65;15.25;;;0.10;99.90;;;;;;4952688;29;20201;-45
2023/01/19 05:01:39;;;;;;;18.13;13.77;;;-0.50;99.90;;;;;;4953018;28;20209;-44
2023/01/19 05:04:07;;;;;;;22.05;13.70;;;0.20;99.90;;;;;;4952698;29;20210;-45
2023/01/19 05:06:36;;;;;;;23.02;16.00;;;0.20;99.90;;;;;;4952459;28;20221;-45
2023/01/19 05:09:03;;;;;;;20.23;14.50;;;0.30;99.90;;;;;;4952304;28;20207;-44
2023/01/19 05:11:29;;;;;;;26.00;15.73;;;-0.50;99.90;;;;;;4952297;29;20209;-46
2023/01/19 05:13:56;;;;;;;23.15;14.35;;;0.10;99.90;;;;;;4952331;29;20203;-45
2023/01/19 05:16:22;;;;;;;19.70;13.55;;;0.10;99.90;;;;;;4952583;28;20409;-45
2023/01/19 05:18:49;;;;;;;23.20;15.70;;;0.20;99.90;;;;;;4952072;28;20200;-46
2023/01/19 05:21:15;;;;;;;24.48;14.77;;;0.20;99.90;;;;;;4952371;29;20204;-47
2023/01/19 05:23:43;;;;;;;21.65;14.32;;;0.00;99.90;;;;;;4952505;28;20200;-45
2023/01/19 05:26:11;;;;;;;20.80;13.43;;;0.00;99.90;;;;;;4952503;28;20256;-46
2023/01/19 05:28:38;;;;;;;22.90;14.35;;;0.10;99.90;;;;;;4951816;29;20210;-46
2023/01/19 05:31:05;;;;;;;22.42;14.27;;;0.20;99.90;;;;;;4951972;28;20220;-45
2023/01/19 05:33:31;;;;;;;21.55;15.15;;;0.00;99.90;;;;;;4952212;29;20197;-46
2023/01/19 05:35:58;;;;;;;28.70;19.17;;;0.20;99.90;;;;;;4952042;28;20707;-45
2023/01/19 05:38:25;;;;;;;17.33;13.73;;;-0.30;99.90;;;;;;4951503;29;20294;-45
2023/01/19 05:40:58;;;;;;;22.00;15.35;;;0.10;99.90;;;;;;4952368;28;20204;-47
2023/01/19 05:43:25;;;;;;;20.52;13.85;;;0.00;99.90;;;;;;4951877;29;20214;-46
2023/01/19 05:45:51;;;;;;;22.35;15.07;;;-0.10;99.90;;;;;;4951589;28;20287;-47
2023/01/19 05:48:18;;;;;;;19.95;14.15;;;0.00;99.90;;;;;;4951412;28;20203;-45
2023/01/19 05:50:44;;;;;;;19.77;14.88;;;-0.10;99.90;;;;;;4951886;29;20224;-46
2023/01/19 05:53:11;;;;;;;19.80;14.27;;;0.00;99.90;;;;;;4951782;29;20201;-45
2023/01/19 05:55:37;;;;;;;20.50;14.52;;;-0.10;99.90;;;;;;4951586;28;20223;-48
2023/01/19 05:58:05;;;;;;;20.38;14.52;;;-0.60;99.90;;;;;;4951675;28;20204;-49
2023/01/19 06:00:32;;;;;;;18.40;13.38;;;-0.10;99.90;;;;;;4951714;28;20207;-46
2023/01/19 06:02:59;;;;;;;21.77;14.68;;;0.10;99.90;;;;;;4951824;29;20576;-45
2023/01/19 06:05:26;;;;;;;20.85;14.27;;;-0.10;99.90;;;;;;4952012;28;20231;-44
2023/01/19 06:07:52;;;;;;;19.48;14.15;;;0.00;99.90;;;;;;4951527;28;20216;-45
2023/01/19 06:10:19;;;;;;;17.52;14.27;;;0.10;99.90;;;;;;4951004;29;20619;-47
2023/01/19 06:12:46;;;;;;;23.48;15.13;;;-0.10;99.90;;;;;;4951447;29;20606;-46
2023/01/19 06:15:14;;;;;;;23.77;14.85;;;-0.10;99.90;;;;;;4951294;28;20215;-48
2023/01/19 06:17:41;;;;;;;18.70;14.35;;;0.00;99.90;;;;;;4951196;28;20318;-46
2023/01/19 06:20:09;;;;;;;22.40;14.82;;;-0.10;99.90;;;;;;4951176;28;20563;-44
2023/01/19 06:22:36;;;;;;;21.83;15.90;;;0.00;99.90;;;;;;4950982;29;20230;-44
2023/01/19 06:25:03;;;;;;;20.15;14.68;;;-0.30;99.90;;;;;;4951189;28;20712;-45
2023/01/19 06:27:29;;;;;;;22.90;14.35;;;-0.20;99.90;;;;;;4950558;29;20215;-46
2023/01/19 06:29:56;;;;;;;20.38;13.80;;;-0.80;99.90;;;;;;4950653;29;20209;-45
2023/01/19 06:32:24;;;;;;;18.15;14.30;;;-0.20;99.90;;;;;;4950534;29;20205;-46
2023/01/19 06:34:50;;;;;;;20.05;14.98;;;0.10;99.90;;;;;;4950659;28;20221;-47
2023/01/19 06:37:17;;;;;;;21.52;14.50;;;-0.20;99.90;;;;;;4950901;29;20192;-45
2023/01/19 06:39:44;;;;;;;18.85;13.63;;;-0.10;99.90;;;;;;4950267;28;20196;-46
2023/01/19 06:42:11;;;;;;;19.60;13.43;;;0.00;99.90;;;;;;4950672;28;20633;-48
2023/01/19 06:44:37;;;;;;;20.58;14.90;;;-0.30;99.90;;;;;;4950271;28;20273;-47
2023/01/19 06:47:04;;;;;;;19.15;14.02;;;-0.20;99.90;;;;;;4950887;28;20226;-47
2023/01/19 06:49:32;;;;;;;18.98;14.40;;;0.00;99.90;;;;;;4950390;29;20201;-48
2023/01/19 06:51:59;;;;;;;19.80;14.60;;;-0.10;99.90;;;;;;4950819;29;20193;-46
2023/01/19 06:54:26;;;;;;;22.23;14.70;;;-0.20;99.90;;;;;;4949728;28;20569;-46
2023/01/19 06:56:52;;;;;;;16.45;13.82;;;-0.20;99.90;;;;;;4950460;29;20227;-47
2023/01/19 06:59:19;;;;;;;26.58;15.48;;;-0.70;99.90;;;;;;4949933;29;20215;-45
2023/01/19 07:01:45;;;;;;;26.27;15.63;;;-0.10;99.90;;;;;;4950667;28;20211;-48
2023/01/19 07:04:14;;;;;;;18.60;14.15;;;-0.40;99.90;;;;;;4950405;28;20587;-46
2023/01/19 07:06:41;;;;;;;18.13;13.50;;;-0.10;99.90;;;;;;4950704;28;20205;-47
2023/01/19 07:09:10;;;;;;;22.08;15.10;;;-0.50;99.90;;;;;;4950580;28;20627;-47
2023/01/19 07:11:37;;;;;;;22.10;14.85;;;-0.40;99.90;;;;;;4949868;29;20209;-44
2023/01/19 07:14:03;;;;;;;24.45;14.82;;;-0.20;99.90;;;;;;4950398;29;20204;-49
2023/01/19 07:16:30;;;;;;;24.38;15.45;;;-0.20;99.90;;;;;;4950539;28;20222;-48
2023/01/19 07:18:57;;;;;;;22.63;14.65;;;-0.80;99.90;;;;;;4950562;28;20207;-46
2023/01/19 07:21:24;;;;;;;19.83;14.63;;;-0.50;99.90;;;;;;4950200;29;20226;-48
2023/01/19 07:23:52;;;;;;;22.17;15.05;;;-0.40;99.90;;;;;;4950702;28;20230;-46
2023/01/19 07:26:20;;;;;;;20.30;13.13;;;-0.30;99.90;;;;;;4950162;28;20297;-45
2023/01/19 07:28:47;;;;;;;20.40;14.57;;;-0.30;99.90;;;;;;4950245;28;20206;-46
2023/01/19 07:31:14;;;;;;;20.92;14.55;;;-0.20;99.90;;;;;;4950454;28;20270;-46
2023/01/19 07:33:40;;;;;;;18.45;14.55;;;-0.20;99.90;;;;;;4949406;28;20251;-45
2023/01/19 07:36:08;;;;;;;21.75;16.48;;;-0.20;99.90;;;;;;4948763;28;20529;-46
2023/01/19 07:38:34;;;;;;;19.90;15.80;;;-0.10;99.90;;;;;;4949465;29;20221;-48
2023/01/19 07:41:03;;;;;;;23.05;14.13;;;-0.20;99.90;;;;;;4950480;28;20212;-47
2023/01/19 07:43:30;;;;;;;17.73;12.45;;;0.00;99.90;;;;;;5016097;28;20574;-44
2023/01/19 07:45:57;;;;;;;22.48;14.60;;;-0.20;99.90;;;;;;4949849;28;20227;-45
2023/01/19 07:48:23;;;;;;;19.30;14.00;;;-0.50;99.90;;;;;;4949699;29;20212;-45
2023/01/19 07:50:50;;;;;;;17.45;14.23;;;-0.20;99.90;;;;;;4949922;28;20290;-46
2023/01/19 07:53:17;;;;;;;21.83;14.90;;;0.10;99.90;;;;;;5015779;28;20216;-46
2023/01/19 07:55:43;;;;;;;20.83;13.82;;;0.00;99.90;;;;;;4949776;28;20221;-47
2023/01/19 07:58:11;;;;;;;23.48;14.80;;;0.20;99.90;;;;;;4949499;28;20205;-46
2023/01/19 08:00:38;;;;;;;18.60;13.88;;;0.40;99.90;;;;;;4950087;28;20296;-46
2023/01/19 08:03:05;;;;;;;19.98;13.85;;;0.10;99.90;;;;;;4950315;28;20265;-47
2023/01/19 08:05:32;;;;;;;19.30;13.15;;;-0.10;99.90;;;;;;4949672;28;20225;-45
2023/01/19 08:07:59;;;;;;;20.33;14.30;;;-0.50;99.90;;;;;;4952882;29;20231;-47
2023/01/19 08:10:27;;;;;;;18.30;14.45;;;-0.70;99.90;;;;;;4952583;29;20679;-46
2023/01/19 08:12:54;;;;;;;24.98;13.50;;;0.00;99.90;;;;;;4952995;29;20201;-47
2023/01/19 08:15:24;;;;;;;14.98;12.43;;;0.10;99.90;;;;;;4952789;28;20228;-47
2023/01/19 08:17:57;;;;;;;16.75;12.82;;;-0.10;99.90;;;;;;4952643;29;20232;-47
2023/01/19 08:20:24;;;;;;;20.27;13.73;;;0.00;99.90;;;;;;4952855;28;20685;-47
2023/01/19 08:22:58;;;;;;;20.13;13.55;;;0.00;99.90;;;;;;4952857;28;20205;-48
2023/01/19 08:25:25;;;;;;;24.02;13.77;;;0.10;99.90;;;;;;4952643;28;20316;-47
2023/01/19 08:27:55;;;;;;;19.45;13.38;;;0.20;99.90;;;;;;4952831;28;20316;-47
2023/01/19 08:30:25;;;;;;;19.98;12.65;;;0.30;99.90;;;;;;4952565;29;20711;-47
2023/01/19 08:32:52;;;;;;;17.92;13.20;;;0.20;99.90;;;;;;4952321;28;20263;-47
2023/01/19 08:35:19;;;;;;;17.85;12.60;;;0.30;99.90;;;;;;4952843;28;20233;-45
2023/01/19 08:37:46;;;;;;;17.13;12.20;;;-0.20;99.90;;;;;;4952704;29;20195;-48
2023/01/19 08:40:13;;;;;;;20.73;13.35;;;0.30;99.90;;;;;;4951971;29;20219;-45
2023/01/19 08:42:39;;;;;;;14.65;11.95;;;0.40;99.90;;;;;;4952692;29;20712;-46
2023/01/19 08:45:08;;;;;;;19.55;13.32;;;0.50;99.90;;;;;;4952437;28;20304;-47
2023/01/19 08:47:36;;;;;;;24.52;14.10;;;0.50;99.90;;;;;;4953113;29;20659;-46
2023/01/19 08:50:02;;;;;;;17.75;12.25;;;0.30;99.90;;;;;;4952447;29;20256;-46
2023/01/19 08:52:29;;;;;;;17.38;11.15;;;0.20;99.90;;;;;;4952551;28;20221;-46
2023/01/19 08:54:56;;;;;;;18.40;11.75;;;0.40;99.90;;;;;;4952876;28;20276;-49
2023/01/19 08:57:22;;;;;;;19.58;10.98;;;0.60;99.90;;;;;;4952710;28;20191;-47
2023/01/19 08:59:49;;;;;;;22.10;12.38;;;-0.10;99.90;;;;;;4951814;29;20204;-46
2023/01/19 09:02:16;;;;;;;16.10;11.55;;;0.10;99.90;;;;;;4952657;28;20227;-46
2023/01/19 09:04:44;;;;;;;22.08;11.65;;;0.60;99.90;;;;;;4952772;28;20239;-47
2023/01/19 09:07:10;;;;;;;16.85;10.52;;;0.40;99.90;;;;;;4952332;28;20218;-47
2023/01/19 09:09:42;;;;;;;13.85;10.60;;;0.60;99.90;;;;;;4952293;28;20301;-46
2023/01/19 09:12:08;;;;;;;14.88;11.85;;;0.40;99.90;;;;;;4952265;29;20206;-47
2023/01/19 09:14:35;;;;;;;15.48;10.10;;;0.60;99.90;;;;;;4952496;28;20240;-46
2023/01/19 09:17:01;;;;;;;15.95;10.95;;;0.60;99.90;;;;;;4952064;28;20203;-48
2023/01/19 09:19:28;;;;;;;15.68;10.73;;;0.60;99.90;;;;;;4952268;28;20208;-45
2023/01/19 09:21:57;;;;;;;23.13;11.60;;;0.50;99.90;;;;;;4952312;29;20203;-48
2023/01/19 09:24:24;;;;;;;18.83;9.80;;;0.60;99.90;;;;;;4952359;28;20229;-46
2023/01/19 09:26:51;;;;;;;14.95;10.93;;;0.30;99.90;;;;;;4952414;28;20214;-46
2023/01/19 09:29:18;;;;;;;16.27;9.80;;;0.80;99.90;;;;;;4952735;28;20278;-45
2023/01/19 09:31:44;;;;;;;18.20;11.75;;;0.60;99.90;;;;;;4953262;28;20212;-45
2023/01/19 09:34:11;;;;;;;16.20;12.45;;;0.60;99.90;;;;;;4952525;28;20200;-45
2023/01/19 09:36:38;;;;;;;14.20;9.88;;;0.80;99.90;;;;;;4951986;29;20199;-45
2023/01/19 09:39:06;;;;;;;15.35;10.20;;;0.70;99.90;;;;;;4952325;28;20205;-46
2023/01/19 09:41:35;;;;;;;15.95;10.95;;;0.60;99.90;;;;;;4952356;28;20544;-48
2023/01/19 09:44:02;;;;;;;14.38;10.63;;;1.10;99.90;;;;;;4952208;28;20210;-45
2023/01/19 09:46:34;;;;;;;18.40;10.32;;;0.90;99.90;;;;;;4952091;28;20602;-45
2023/01/19 09:49:05;;;;;;;24.92;10.75;;;0.90;99.90;;;;;;4951962;28;20205;-47
2023/01/19 09:51:34;;;;;;;12.40;9.80;;;1.00;99.90;;;;;;4951892;28;20195;-46
2023/01/19 09:54:10;;;;;;;16.50;10.50;;;1.00;99.90;;;;;;4951789;29;20661;-47
2023/01/19 09:56:37;;;;;;;21.60;13.63;;;1.10;99.90;;;;;;4951930;28;20216;-48
2023/01/19 09:59:19;;;;;;;20.27;12.35;;;1.10;99.90;;;;;;4952434;28;20294;-46
2023/01/19 10:01:58;;;;;;;17.48;12.52;;;1.30;99.90;;;;;;4952392;28;20191;-48
2023/01/19 10:04:31;;;;;;;16.15;12.13;;;1.00;99.90;;;;;;4952274;28;20696;-46
2023/01/19 10:07:17;;;;;;;19.52;11.10;;;1.20;99.90;;;;;;4952217;29;20206;-47
2023/01/19 10:09:59;;;;;;;15.77;10.75;;;1.20;99.90;;;;;;4952513;28;20274;-47
2023/01/19 10:12:37;;;;;;;19.00;10.32;;;1.20;99.90;;;;;;4952376;28;20610;-47
2023/01/19 10:15:17;;;;;;;14.70;10.82;;;1.20;99.90;;;;;;4952423;28;20237;-47
2023/01/19 10:17:54;;;;;;;14.20;10.63;;;1.20;99.90;;;;;;4952315;28;20202;-46
2023/01/19 10:20:28;;;;;;;15.13;9.88;;;1.30;99.90;;;;;;4951695;29;20198;-46
2023/01/19 10:22:56;;;;;;;16.52;10.55;;;1.60;99.90;;;;;;4951991;29;20270;-46
2023/01/19 10:25:25;;;;;;;16.05;9.10;;;0.60;99.90;;;;;;4952580;28;20223;-46
2023/01/19 10:27:51;;;;;;;12.18;9.57;;;1.30;99.90;;;;;;5017911;28;20568;-46
2023/01/19 10:30:22;;;;;;;14.93;10.32;;;1.00;99.90;;;;;;4951122;28;20210;-47
2023/01/19 10:32:50;;;;;;;12.95;8.65;;;1.60;99.90;;;;;;4951946;28;20675;-46
2023/01/19 10:35:23;;;;;;;17.85;10.80;;;1.60;99.90;;;;;;4952088;28;20247;-47
2023/01/19 10:37:50;;;;;;;13.40;10.07;;;1.80;99.90;;;;;;4952005;28;20195;-47
2023/01/19 10:40:26;;;;;;;12.95;9.07;;;1.60;99.90;;;;;;4952120;28;20282;-46
2023/01/19 10:42:55;;;;;;;34.72;11.45;;;1.50;99.90;;;;;;4951562;28;20199;-47
2023/01/19 10:45:24;;;;;;;20.35;10.32;;;1.60;99.90;;;;;;4951804;28;20690;-46
2023/01/19 10:47:53;;;;;;;18.08;10.63;;;1.70;99.90;;;;;;4951629;28;20226;-47
2023/01/19 10:50:26;;;;;;;17.27;11.77;;;2.10;99.90;;;;;;4951422;29;20211;-46
2023/01/19 10:52:54;;;;;;;14.10;10.35;;;1.10;99.90;;;;;;4950930;29;20195;-46
2023/01/19 10:55:27;;;;;;;12.23;9.15;;;1.90;99.90;;;;;;4950933;28;20595;-45
2023/01/19 10:57:54;;;;;;;18.17;10.10;;;1.70;99.90;;;;;;4950828;29;20187;-45
2023/01/19 11:00:33;;;;;;;12.85;9.95;;;1.60;99.90;;;;;;4951665;28;20203;-47
2023/01/19 11:03:00;;;;;;;14.55;10.00;;;2.00;99.90;;;;;;4951561;29;20195;-46
2023/01/19 11:05:29;;;;;;;13.00;9.65;;;1.70;99.90;;;;;;4951126;28;20237;-45
2023/01/19 11:07:56;;;;;;;15.52;9.90;;;1.80;99.90;;;;;;4951292;29;20303;-47
2023/01/19 11:10:24;;;;;;;15.70;11.65;;;1.80;99.90;;;;;;4950872;28;20211;-46
2023/01/19 11:13:02;;;;;;;10.35;9.30;;;2.10;99.90;;;;;;4950868;28;20197;-47
2023/01/19 11:15:32;;;;;;;14.70;10.35;;;2.10;99.90;;;;;;4951235;28;20306;-46
2023/01/19 11:17:59;;;;;;;15.90;9.63;;;2.20;99.90;;;;;;4950613;28;20199;-45
2023/01/19 11:20:29;;;;;;;13.70;9.52;;;2.20;99.90;;;;;;4951197;28;20237;-47
2023/01/19 11:23:05;;;;;;;14.63;11.10;;;2.00;99.90;;;;;;4950649;28;20579;-45
2023/01/19 11:25:35;;;;;;;14.23;9.80;;;2.40;99.90;;;;;;4950909;28;20226;-45
2023/01/19 11:28:04;;;;;;;15.55;10.13;;;2.20;99.90;;;;;;4950795;28;20227;-46
2023/01/19 11:30:31;;;;;;;13.10;10.30;;;2.40;99.90;;;;;;5016804;28;20212;-45
2023/01/19 11:32:57;;;;;;;15.20;10.68;;;2.30;99.90;;;;;;4950386;28;20230;-46
2023/01/19 11:35:34;;;;;;;11.88;9.45;;;2.50;99.90;;;;;;4950447;28;20223;-45
2023/01/19 11:38:15;;;;;;;14.02;9.57;;;2.40;99.90;;;;;;4950806;28;20199;-46
2023/01/19 11:40:45;;;;;;;12.68;10.85;;;2.60;99.90;;;;;;4952158;28;20644;-46
2023/01/19 11:43:13;;;;;;;16.00;10.43;;;2.60;99.90;;;;;;5020098;28;20204;-45
2023/01/19 11:45:40;;;;;;;14.00;9.95;;;2.60;99.90;;;;;;5020351;28;20727;-46
2023/01/19 11:48:13;;;;;;;12.48;9.20;;;2.60;99.90;;;;;;5020129;28;20223;-45
2023/01/19 11:50:42;;;;;;;15.75;11.15;;;2.30;99.90;;;;;;4953730;28;20565;-46
2023/01/19 11:53:17;;;;;;;12.38;9.98;;;2.60;99.90;;;;;;4953239;29;20204;-47
2023/01/19 11:55:49;;;;;;;13.95;10.50;;;2.90;99.90;;;;;;4953622;28;20227;-45
2023/01/19 11:58:18;;;;;;;12.55;9.80;;;2.70;99.90;;;;;;5020113;28;20242;-47
2023/01/19 12:00:48;;;;;;;14.40;10.93;;;3.30;99.90;;;;;;4953698;28;20551;-46
2023/01/19 12:03:22;;;;;;;15.05;10.63;;;3.00;99.90;;;;;;4953523;28;20192;-46
2023/01/19 12:05:51;;;;;;;14.25;10.32;;;2.90;99.90;;;;;;4953878;28;20237;-47
2023/01/19 12:08:22;;;;;;;14.43;10.55;;;2.60;99.90;;;;;;4953239;28;20211;-47
2023/01/19 12:10:52;;;;;;;15.50;10.38;;;2.80;99.90;;;;;;4953686;28;20207;-46
2023/01/19 12:13:22;;;;;;;15.50;11.75;;;2.80;99.90;;;;;;4953563;28;20668;-47
2023/01/19 12:15:53;;;;;;;13.90;10.32;;;2.90;99.90;;;;;;4953495;28;20230;-47
2023/01/19 12:18:24;;;;;;;16.45;11.00;;;2.90;99.90;;;;;;5019401;28;20208;-47
2023/01/19 12:20:52;;;;;;;14.07;10.15;;;2.80;99.90;;;;;;4953505;29;20211;-47
2023/01/19 12:23:32;;;;;;;13.07;9.57;;;3.00;99.90;;;;;;4953508;28;20218;-47
2023/01/19 12:26:15;;;;;;;13.48;9.48;;;2.70;99.90;;;;;;4953608;28;20223;-47
2023/01/19 12:28:46;;;;;;;16.55;10.05;;;3.00;99.90;;;;;;4953059;28;20230;-47
2023/01/19 12:31:16;;;;;;;15.52;11.00;;;3.00;99.90;;;;;;4953499;28;20691;-47
2023/01/19 12:33:42;;;;;;;16.75;11.18;;;3.00;99.90;;;;;;4953048;29;20214;-45
2023/01/19 12:36:31;;;;;;;15.13;12.55;;;2.80;99.90;;;;;;4953327;28;20254;-46
2023/01/19 12:39:01;;;;;;;14.65;10.27;;;2.40;99.90;;;;;;4953534;28;20195;-46
2023/01/19 12:41:31;;;;;;;14.43;11.70;;;3.10;99.90;;;;;;4953851;28;20211;-47
2023/01/19 12:44:33;;;;;;;15.98;11.63;;;3.10;99.90;;;;;;4953444;28;20207;-46
2023/01/19 12:47:18;;;;;;;13.20;10.32;;;3.20;99.90;;;;;;4973317;28;20211;-46
2023/01/19 12:49:47;;;;;;;15.20;10.27;;;3.00;99.90;;;;;;4972329;28;20262;-47
2023/01/19 12:52:21;;;;;;;18.58;13.70;;;3.00;99.90;;;;;;4972183;28;20215;-47
2023/01/19 12:54:59;;;;;;;14.38;11.43;;;3.10;99.90;;;;;;4972878;28;20226;-47
2023/01/19 12:57:29;;;;;;;13.02;10.50;;;3.20;99.90;;;;;;4972487;28;20262;-48